Time;durP1;ratioP1;P1;durP2;ratioP2;P2;SDS_P1;SDS_P2;PMS_P1;PMS_P2;Temp;Humidity;BMP_temperature;BMP_pressure;BME280_temperature;BME280_humidity;BME280_pressure;Samples;Min_cycle;Max_cycle;Signal;HPM_P1;HPM_P2
2023/08/21 00:00:45;;;;;;;2.90;1.00;;;18.30;99.90;;;;;;5063137;28;20394;-34
2023/08/21 00:03:11;;;;;;;1.35;0.60;;;18.20;99.90;;;;;;5053750;28;20086;-34
2023/08/21 00:05:37;;;;;;;2.33;0.70;;;18.20;99.90;;;;;;5061327;28;20060;-34
2023/08/21 00:08:02;;;;;;;3.33;1.15;;;18.20;99.90;;;;;;5048356;28;20069;-34
2023/08/21 00:10:30;;;;;;;2.53;0.98;;;18.20;99.90;;;;;;5059611;28;20048;-33
2023/08/21 00:12:55;;;;;;;2.58;0.90;;;18.10;99.90;;;;;;5059876;28;20049;-33
2023/08/21 00:15:21;;;;;;;2.33;0.93;;;18.10;99.90;;;;;;5061002;28;20056;-33
2023/08/21 00:17:47;;;;;;;2.75;1.00;;;18.10;99.90;;;;;;5062039;28;20060;-34
2023/08/21 00:20:13;;;;;;;2.17;0.90;;;18.10;99.90;;;;;;5065139;28;20052;-34
2023/08/21 00:22:38;;;;;;;4.13;1.08;;;18.00;99.90;;;;;;5054948;28;20139;-34
2023/08/21 00:25:04;;;;;;;2.15;1.00;;;18.00;99.90;;;;;;5053131;28;20114;-34
2023/08/21 00:27:30;;;;;;;3.00;1.23;;;17.90;99.90;;;;;;5052488;28;20052;-34
2023/08/21 00:29:55;;;;;;;3.55;1.30;;;17.90;99.90;;;;;;5061029;28;20083;-33
2023/08/21 00:32:21;;;;;;;2.78;1.02;;;17.90;99.90;;;;;;5064247;28;20056;-34
2023/08/21 00:34:47;;;;;;;2.40;1.13;;;17.90;99.90;;;;;;5061971;28;20052;-34
2023/08/21 00:37:12;;;;;;;2.55;0.90;;;17.80;99.90;;;;;;5062730;28;20434;-34
2023/08/21 00:39:38;;;;;;;3.63;1.20;;;17.80;99.90;;;;;;5060572;28;20040;-34
2023/08/21 00:42:04;;;;;;;2.38;1.00;;;17.80;99.90;;;;;;5057491;28;20045;-33
2023/08/21 00:44:29;;;;;;;3.83;1.00;;;17.80;99.90;;;;;;5052274;28;20037;-34
2023/08/21 00:46:55;;;;;;;3.20;1.10;;;17.80;99.90;;;;;;5064660;28;20036;-34
2023/08/21 00:49:21;;;;;;;6.68;1.30;;;17.80;99.90;;;;;;5061679;28;20079;-34
2023/08/21 00:51:49;;;;;;;4.28;1.67;;;17.70;99.90;;;;;;5062882;28;20045;-33
2023/08/21 00:54:15;;;;;;;2.63;0.90;;;17.70;99.90;;;;;;5062295;28;20082;-34
2023/08/21 00:56:41;;;;;;;2.10;1.00;;;17.70;99.90;;;;;;5053144;28;20049;-34
2023/08/21 00:59:07;;;;;;;1.98;0.80;;;17.60;99.90;;;;;;5064056;28;20055;-34
2023/08/21 01:01:35;;;;;;;3.97;0.98;;;17.60;99.90;;;;;;5063211;28;20045;-34
2023/08/21 01:04:01;;;;;;;3.90;1.00;;;17.60;99.90;;;;;;5057234;28;20044;-33
2023/08/21 01:06:27;;;;;;;3.40;1.02;;;17.50;99.90;;;;;;5054440;28;20051;-33
2023/08/21 01:09:29;;;;;;;1.70;0.98;;;17.50;99.90;;;;;;5063086;28;20052;-33
2023/08/21 01:11:57;;;;;;;1.77;0.75;;;17.50;99.90;;;;;;5038672;28;20052;-33
2023/08/21 01:14:42;;;;;;;0.90;0.50;;;17.40;99.90;;;;;;5052775;28;20044;-33
2023/08/21 01:17:12;;;;;;;1.38;0.60;;;17.40;99.90;;;;;;5061845;28;20080;-33
2023/08/21 01:19:43;;;;;;;1.40;0.50;;;17.30;99.90;;;;;;5060520;28;20075;-34
2023/08/21 01:22:08;;;;;;;1.45;0.60;;;17.30;99.90;;;;;;5062604;28;20469;-33
2023/08/21 01:24:34;;;;;;;3.92;0.88;;;17.20;99.90;;;;;;5062780;28;20128;-33
2023/08/21 01:27:00;;;;;;;2.88;0.77;;;17.20;99.90;;;;;;5061025;28;20554;-33
2023/08/21 01:29:27;;;;;;;1.77;0.63;;;17.20;99.90;;;;;;5062534;28;20052;-33
2023/08/21 01:32:05;;;;;;;5.07;0.95;;;17.20;99.90;;;;;;5062377;28;20044;-34
2023/08/21 01:34:33;;;;;;;3.20;0.80;;;17.20;99.90;;;;;;5061130;28;20052;-33
2023/08/21 01:37:00;;;;;;;2.65;0.85;;;17.20;99.90;;;;;;5064268;28;20052;-34
2023/08/21 01:39:27;;;;;;;3.05;0.60;;;17.20;99.90;;;;;;5062403;28;20048;-34
2023/08/21 01:41:53;;;;;;;1.58;0.80;;;17.10;99.90;;;;;;5051745;28;20063;-34
2023/08/21 01:44:18;;;;;;;3.90;0.93;;;17.10;99.90;;;;;;5066987;28;20414;-34
2023/08/21 01:46:44;;;;;;;3.38;0.90;;;17.10;99.90;;;;;;5061370;28;20480;-34
2023/08/21 01:49:10;;;;;;;2.50;1.08;;;17.10;99.90;;;;;;5063299;28;20037;-34
2023/08/21 01:51:35;;;;;;;1.98;0.80;;;17.10;99.90;;;;;;5063790;28;20063;-34
2023/08/21 01:54:01;;;;;;;2.63;1.00;;;17.00;99.90;;;;;;5060464;28;20057;-34
2023/08/21 01:56:26;;;;;;;3.30;0.90;;;17.10;99.90;;;;;;5060286;28;20091;-34
2023/08/21 01:58:52;;;;;;;2.20;1.00;;;17.10;99.90;;;;;;5062752;28;20442;-33
2023/08/21 02:01:21;;;;;;;2.05;0.80;;;17.00;99.90;;;;;;5064500;28;20401;-34
2023/08/21 02:03:46;;;;;;;2.50;0.82;;;17.00;99.90;;;;;;5055305;28;20090;-34
2023/08/21 02:06:12;;;;;;;4.00;1.08;;;17.00;99.90;;;;;;5058171;28;20045;-34
2023/08/21 02:08:38;;;;;;;3.03;1.15;;;17.00;99.90;;;;;;5065748;28;20076;-34
2023/08/21 02:11:03;;;;;;;2.35;1.10;;;16.90;99.90;;;;;;5062930;28;20056;-34
2023/08/21 02:13:29;;;;;;;2.00;1.02;;;17.00;99.90;;;;;;5060948;28;20060;-34
2023/08/21 02:15:55;;;;;;;3.20;1.13;;;17.00;99.90;;;;;;5068437;28;20054;-34
2023/08/21 02:18:20;;;;;;;3.83;0.93;;;17.00;99.90;;;;;;5067391;28;20075;-34
2023/08/21 02:20:48;;;;;;;2.53;1.00;;;17.00;99.90;;;;;;5066825;28;20409;-34
2023/08/21 02:23:14;;;;;;;2.67;1.08;;;17.00;99.90;;;;;;5065206;28;20126;-34
2023/08/21 02:25:40;;;;;;;3.28;1.00;;;16.90;99.90;;;;;;5068401;28;20072;-34
2023/08/21 02:28:06;;;;;;;2.80;1.10;;;16.90;99.90;;;;;;5062266;28;20127;-34
2023/08/21 02:30:32;;;;;;;2.80;1.08;;;16.90;99.90;;;;;;5067286;28;20186;-34
2023/08/21 02:32:58;;;;;;;3.47;0.88;;;16.90;99.90;;;;;;5047055;28;20470;-34
2023/08/21 02:35:23;;;;;;;2.45;1.23;;;16.80;99.90;;;;;;5057124;28;20059;-34
2023/08/21 02:37:49;;;;;;;2.70;1.00;;;16.80;99.90;;;;;;5067079;28;20139;-34
2023/08/21 02:40:15;;;;;;;3.65;1.13;;;16.80;99.90;;;;;;5065608;28;20078;-34
2023/08/21 02:42:40;;;;;;;8.68;1.63;;;16.80;99.90;;;;;;5066955;28;20383;-34
2023/08/21 02:45:09;;;;;;;3.70;1.00;;;16.80;99.90;;;;;;5069302;28;20048;-34
2023/08/21 02:47:39;;;;;;;6.28;1.30;;;16.80;99.90;;;;;;5067707;28;20056;-34
2023/08/21 02:50:06;;;;;;;3.00;0.95;;;16.70;99.90;;;;;;5065204;28;20131;-34
2023/08/21 02:52:33;;;;;;;3.65;1.23;;;16.70;99.90;;;;;;5066908;28;20101;-34
2023/08/21 02:54:59;;;;;;;2.92;0.95;;;16.70;99.90;;;;;;5050092;28;20049;-34
2023/08/21 02:57:26;;;;;;;2.88;0.90;;;16.70;99.90;;;;;;5046443;28;20179;-33
2023/08/21 02:59:52;;;;;;;4.88;1.13;;;16.60;99.90;;;;;;5062950;28;20740;-34
2023/08/21 03:02:18;;;;;;;3.38;0.80;;;16.60;99.90;;;;;;5059846;28;20052;-34
2023/08/21 03:04:44;;;;;;;2.13;0.90;;;16.60;99.90;;;;;;5057422;28;20135;-34
2023/08/21 03:07:09;;;;;;;3.60;1.10;;;16.50;99.90;;;;;;5066650;28;20049;-34
2023/08/21 03:09:37;;;;;;;2.65;1.10;;;16.50;99.90;;;;;;5067180;28;20059;-34
2023/08/21 03:12:03;;;;;;;2.70;0.98;;;16.50;99.90;;;;;;5066736;28;20052;-34
2023/08/21 03:14:28;;;;;;;2.83;0.88;;;16.40;99.90;;;;;;5062960;28;20136;-34
2023/08/21 03:16:54;;;;;;;1.58;0.80;;;16.40;99.90;;;;;;5064180;28;20139;-34
2023/08/21 03:19:19;;;;;;;2.33;0.80;;;16.40;99.90;;;;;;5064979;28;20392;-34
2023/08/21 03:21:45;;;;;;;2.63;0.70;;;16.40;99.90;;;;;;5048735;28;20099;-34
2023/08/21 03:24:11;;;;;;;4.05;0.88;;;16.40;99.90;;;;;;5047601;28;20045;-34
2023/08/21 03:26:36;;;;;;;2.25;0.70;;;16.30;99.90;;;;;;5050081;28;20402;-34
2023/08/21 03:29:02;;;;;;;3.40;0.88;;;16.30;99.90;;;;;;5062684;28;20048;-33
2023/08/21 03:31:29;;;;;;;2.97;1.00;;;16.30;99.90;;;;;;5063207;28;20465;-34
2023/08/21 03:33:54;;;;;;;1.90;0.90;;;16.30;99.90;;;;;;5061139;28;20044;-34
2023/08/21 03:36:20;;;;;;;2.35;0.80;;;16.30;99.90;;;;;;5052412;28;20153;-33
2023/08/21 03:38:46;;;;;;;4.03;0.80;;;16.30;99.90;;;;;;5064880;28;20253;-34
2023/08/21 03:41:11;;;;;;;3.47;1.08;;;16.20;99.90;;;;;;5062409;28;20060;-34
2023/08/21 03:43:37;;;;;;;2.83;1.20;;;16.20;99.90;;;;;;5066277;28;20040;-35
2023/08/21 03:46:03;;;;;;;2.75;0.93;;;16.20;99.90;;;;;;5062727;28;20413;-34
2023/08/21 03:48:29;;;;;;;3.33;1.25;;;16.20;99.90;;;;;;5066363;28;20052;-34
2023/08/21 03:50:55;;;;;;;3.20;1.20;;;16.20;99.90;;;;;;5066573;28;20064;-34
2023/08/21 03:53:20;;;;;;;3.17;1.30;;;16.20;99.90;;;;;;5059487;28;20418;-34
2023/08/21 03:55:46;;;;;;;3.85;1.42;;;16.20;99.90;;;;;;5058680;28;20122;-34
2023/08/21 03:58:13;;;;;;;4.53;1.35;;;16.20;99.90;;;;;;5046707;28;20853;-34
2023/08/21 04:00:40;;;;;;;3.88;1.48;;;16.20;99.90;;;;;;5059319;28;20140;-34
2023/08/21 04:03:05;;;;;;;3.70;1.50;;;16.20;99.90;;;;;;5055333;28;20078;-34
2023/08/21 04:05:31;;;;;;;4.68;1.80;;;16.20;99.90;;;;;;5070347;28;20072;-34
2023/08/21 04:07:57;;;;;;;5.20;1.77;;;16.10;99.90;;;;;;5057951;28;20080;-34
2023/08/21 04:10:22;;;;;;;3.53;1.60;;;16.10;99.90;;;;;;5057005;28;20137;-34
2023/08/21 04:12:48;;;;;;;2.35;1.48;;;16.10;99.90;;;;;;5065210;28;20103;-34
2023/08/21 04:15:14;;;;;;;3.20;1.45;;;16.10;99.90;;;;;;5064931;28;20052;-34
2023/08/21 04:17:39;;;;;;;3.13;1.70;;;16.10;99.90;;;;;;5060109;28;20049;-34
2023/08/21 04:20:06;;;;;;;4.07;1.73;;;16.10;99.90;;;;;;5053396;28;20136;-34
2023/08/21 04:22:32;;;;;;;4.78;1.80;;;16.10;99.90;;;;;;5064474;28;20772;-34
2023/08/21 04:24:57;;;;;;;3.45;1.60;;;16.00;99.90;;;;;;5063559;28;20037;-34
2023/08/21 04:27:23;;;;;;;4.95;1.75;;;16.00;99.90;;;;;;5059267;28;20049;-34
2023/08/21 04:29:48;;;;;;;4.70;1.70;;;16.10;99.90;;;;;;5047729;28;20438;-34
2023/08/21 04:32:14;;;;;;;3.13;1.73;;;16.00;99.90;;;;;;5061443;28;20076;-33
2023/08/21 04:34:40;;;;;;;2.17;1.30;;;16.00;99.90;;;;;;5063437;28;20514;-32
2023/08/21 04:37:05;;;;;;;3.45;1.30;;;16.00;99.90;;;;;;5064384;28;20055;-33
2023/08/21 04:39:31;;;;;;;4.18;1.50;;;16.00;99.90;;;;;;5063792;28;20051;-33
2023/08/21 04:41:56;;;;;;;3.20;1.30;;;15.90;99.90;;;;;;5070742;28;20141;-32
2023/08/21 04:44:22;;;;;;;2.60;1.30;;;15.90;99.90;;;;;;5052155;28;20490;-33
2023/08/21 04:46:52;;;;;;;1.73;1.00;;;15.90;99.90;;;;;;5062754;28;20045;-32
2023/08/21 04:49:17;;;;;;;3.55;1.10;;;15.80;99.90;;;;;;5056863;28;20044;-32
2023/08/21 04:51:43;;;;;;;2.70;1.23;;;15.90;99.90;;;;;;5063828;28;20050;-32
2023/08/21 04:54:08;;;;;;;2.40;1.30;;;15.80;99.90;;;;;;5063243;28;20051;-32
2023/08/21 04:56:34;;;;;;;2.05;1.30;;;15.80;99.90;;;;;;5066547;28;20119;-32
2023/08/21 04:59:00;;;;;;;4.63;1.27;;;15.80;99.90;;;;;;5047004;28;20491;-32
2023/08/21 05:01:25;;;;;;;2.95;1.35;;;15.90;99.90;;;;;;5060694;28;20052;-32
2023/08/21 05:03:51;;;;;;;2.83;1.50;;;15.90;99.90;;;;;;5048757;28;20052;-32
2023/08/21 05:06:17;;;;;;;2.67;1.42;;;15.90;99.90;;;;;;5063259;28;20052;-32
2023/08/21 05:08:42;;;;;;;4.20;1.60;;;15.90;99.90;;;;;;5064988;28;20411;-32
2023/08/21 05:11:08;;;;;;;6.57;1.35;;;15.90;99.90;;;;;;5064839;28;20552;-33
2023/08/21 05:13:34;;;;;;;6.55;2.53;;;15.90;99.90;;;;;;5064127;28;20052;-33
2023/08/21 05:15:59;;;;;;;2.40;1.35;;;15.90;99.90;;;;;;5062530;28;20750;-33
2023/08/21 05:18:25;;;;;;;6.40;1.50;;;16.00;99.90;;;;;;5055474;28;20063;-32
2023/08/21 05:20:53;;;;;;;2.67;1.50;;;16.00;99.90;;;;;;5060736;28;20056;-33
2023/08/21 05:23:19;;;;;;;4.07;1.55;;;16.00;99.90;;;;;;5048490;28;20049;-33
2023/08/21 05:25:45;;;;;;;2.67;1.17;;;16.10;99.90;;;;;;5056276;28;20086;-33
2023/08/21 05:28:11;;;;;;;3.67;1.50;;;16.10;99.90;;;;;;5059716;28;20062;-33
2023/08/21 05:30:37;;;;;;;4.95;1.50;;;16.20;99.90;;;;;;5056878;28;20414;-33
2023/08/21 05:33:03;;;;;;;3.08;1.50;;;16.20;99.90;;;;;;5053236;28;20163;-32
2023/08/21 05:35:36;;;;;;;3.65;1.38;;;16.20;99.90;;;;;;5059351;28;22111;-32
2023/08/21 05:38:05;;;;;;;2.22;1.20;;;16.30;99.90;;;;;;5053183;28;20060;-32
2023/08/21 05:40:31;;;;;;;2.22;1.30;;;16.30;99.90;;;;;;5039832;28;20064;-33
2023/08/21 05:42:58;;;;;;;3.83;1.55;;;16.40;99.90;;;;;;5043363;28;20045;-33
2023/08/21 05:45:23;;;;;;;2.55;1.10;;;16.40;99.90;;;;;;5064008;28;20080;-32
2023/08/21 05:47:49;;;;;;;2.50;1.60;;;16.50;99.90;;;;;;5055298;28;20410;-33
2023/08/21 05:50:15;;;;;;;3.20;1.40;;;16.60;99.90;;;;;;5065064;28;20529;-32
2023/08/21 05:52:40;;;;;;;3.58;1.10;;;16.60;99.90;;;;;;5063244;28;20070;-32
2023/08/21 05:55:06;;;;;;;2.20;1.17;;;16.70;99.90;;;;;;5055723;28;20451;-32
2023/08/21 05:57:32;;;;;;;2.55;1.30;;;16.70;99.90;;;;;;5063282;28;20045;-32
2023/08/21 05:59:58;;;;;;;3.47;1.50;;;16.80;99.90;;;;;;5067141;28;20517;-33
2023/08/21 06:02:23;;;;;;;3.00;1.25;;;17.00;99.90;;;;;;5059603;28;20056;-33
2023/08/21 06:04:49;;;;;;;2.97;1.40;;;17.00;99.90;;;;;;5066686;28;20452;-33
2023/08/21 06:07:15;;;;;;;3.50;1.85;;;17.10;99.90;;;;;;5065268;28;20132;-33
2023/08/21 06:09:40;;;;;;;3.55;1.83;;;17.10;99.90;;;;;;5061337;28;20428;-33
2023/08/21 06:12:06;;;;;;;3.60;1.50;;;17.20;99.90;;;;;;5066055;28;20056;-33
2023/08/21 06:14:32;;;;;;;2.15;1.23;;;17.30;99.90;;;;;;5060287;28;20057;-33
2023/08/21 06:16:59;;;;;;;5.30;2.03;;;17.40;99.90;;;;;;5067115;28;20050;-33
2023/08/21 06:19:25;;;;;;;6.15;3.00;;;17.50;99.90;;;;;;5082347;28;20045;-33
2023/08/21 06:21:51;;;;;;;9.15;2.28;;;17.50;99.90;;;;;;5067248;28;20087;-33
2023/08/21 06:24:16;;;;;;;9.50;2.58;;;17.50;99.90;;;;;;5063892;28;20108;-33
2023/08/21 06:26:42;;;;;;;4.43;1.83;;;17.60;99.90;;;;;;5062975;28;20063;-33
2023/08/21 06:29:08;;;;;;;7.88;2.17;;;17.70;99.90;;;;;;5063331;28;20048;-33
2023/08/21 06:31:33;;;;;;;4.78;2.13;;;17.70;99.90;;;;;;5060264;28;20065;-33
2023/08/21 06:33:59;;;;;;;4.95;1.83;;;17.80;99.90;;;;;;5068209;28;20044;-33
2023/08/21 06:36:25;;;;;;;4.80;1.95;;;17.80;99.90;;;;;;5066876;28;20049;-33
2023/08/21 06:38:50;;;;;;;5.07;2.25;;;17.90;99.90;;;;;;5065713;28;20434;-33
2023/08/21 06:41:16;;;;;;;4.25;2.08;;;18.00;99.90;;;;;;5063738;28;20056;-33
2023/08/21 06:43:42;;;;;;;7.72;2.60;;;18.00;99.90;;;;;;5065550;28;20036;-34
2023/08/21 06:46:08;;;;;;;7.95;2.83;;;18.10;99.90;;;;;;5065153;28;20483;-33
2023/08/21 06:48:37;;;;;;;5.63;2.10;;;18.20;99.90;;;;;;5059912;28;21284;-33
2023/08/21 06:51:03;;;;;;;9.20;2.63;;;18.20;99.90;;;;;;5057610;28;20053;-33
2023/08/21 06:53:28;;;;;;;4.53;2.20;;;18.30;99.90;;;;;;5058064;28;20045;-33
2023/08/21 06:55:54;;;;;;;5.45;2.80;;;18.40;99.90;;;;;;5063976;28;20040;-33
2023/08/21 06:58:21;;;;;;;5.07;2.38;;;18.40;99.90;;;;;;5060579;28;20056;-34
2023/08/21 07:00:46;;;;;;;3.10;1.80;;;18.50;99.90;;;;;;5075822;28;20567;-33
2023/08/21 07:03:12;;;;;;;4.55;1.90;;;18.50;99.90;;;;;;5043891;28;20057;-33
2023/08/21 07:05:38;;;;;;;5.43;1.75;;;18.70;99.90;;;;;;5064435;28;20075;-33
2023/08/21 07:08:04;;;;;;;4.18;1.50;;;18.70;99.90;;;;;;5065607;28;20076;-33
2023/08/21 07:10:29;;;;;;;3.53;1.83;;;18.80;99.90;;;;;;5065122;28;20062;-33
2023/08/21 07:12:55;;;;;;;4.63;1.88;;;18.90;99.90;;;;;;5051644;28;20490;-33
2023/08/21 07:15:22;;;;;;;7.10;2.22;;;19.00;99.90;;;;;;5062927;28;20056;-33
2023/08/21 07:17:48;;;;;;;5.50;2.20;;;19.00;99.90;;;;;;5054052;28;20532;-33
2023/08/21 07:20:14;;;;;;;4.35;1.92;;;19.00;99.90;;;;;;5046081;28;20049;-34
2023/08/21 07:22:39;;;;;;;5.53;2.13;;;19.10;99.90;;;;;;5040107;28;20698;-34
2023/08/21 07:25:05;;;;;;;8.10;2.35;;;19.10;99.90;;;;;;5055186;28;20061;-33
2023/08/21 07:27:31;;;;;;;6.18;1.95;;;19.20;99.90;;;;;;5053307;28;20044;-33
2023/08/21 07:29:57;;;;;;;8.20;1.70;;;19.20;99.90;;;;;;5061730;28;20149;-33
2023/08/21 07:32:23;;;;;;;5.70;1.40;;;19.30;99.90;;;;;;5064919;28;20507;-33
2023/08/21 07:34:54;;;;;;;4.82;1.67;;;19.40;99.90;;;;;;5054626;28;20048;-33
2023/08/21 07:37:20;;;;;;;5.38;2.33;;;19.40;99.90;;;;;;5058732;28;20101;-32
2023/08/21 07:39:45;;;;;;;5.15;2.28;;;19.50;99.90;;;;;;5058860;28;20126;-33
2023/08/21 07:42:12;;;;;;;5.43;1.77;;;19.60;99.90;;;;;;5056758;28;20091;-33
2023/08/21 07:44:39;;;;;;;4.32;1.23;;;19.70;99.90;;;;;;5054160;28;20095;-33
2023/08/21 07:47:05;;;;;;;4.88;1.80;;;19.70;99.90;;;;;;5054402;28;20470;-33
2023/08/21 07:49:32;;;;;;;3.60;1.58;;;19.80;99.90;;;;;;5060527;28;20060;-33
2023/08/21 07:51:57;;;;;;;4.97;1.80;;;19.90;99.90;;;;;;5045015;28;20052;-32
2023/08/21 07:54:24;;;;;;;4.82;1.75;;;20.00;99.90;;;;;;5058354;28;20101;-33
2023/08/21 07:56:50;;;;;;;4.35;1.60;;;20.10;99.90;;;;;;5061208;28;20177;-33
2023/08/21 07:59:16;;;;;;;3.58;1.48;;;20.20;99.90;;;;;;5062323;28;20048;-33
2023/08/21 08:01:42;;;;;;;5.45;1.83;;;20.30;99.90;;;;;;5044731;28;20099;-33
2023/08/21 08:04:08;;;;;;;5.32;2.30;;;20.40;99.90;;;;;;5056381;28;20044;-33
2023/08/21 08:06:33;;;;;;;7.07;2.28;;;20.50;99.90;;;;;;5046659;28;20060;-33
2023/08/21 08:08:59;;;;;;;5.05;1.65;;;20.60;99.90;;;;;;5048771;28;20071;-33
2023/08/21 08:11:25;;;;;;;5.10;1.92;;;20.80;99.90;;;;;;5061196;28;20341;-33
2023/08/21 08:13:51;;;;;;;5.00;1.38;;;20.90;99.90;;;;;;5061424;28;20102;-33
2023/08/21 08:16:16;;;;;;;8.98;2.30;;;21.00;99.90;;;;;;5061009;28;20052;-33
2023/08/21 08:18:42;;;;;;;5.03;1.30;;;21.10;99.90;;;;;;5063684;28;20067;-33
2023/08/21 08:21:08;;;;;;;4.00;1.17;;;21.20;99.90;;;;;;5062188;28;20052;-33
2023/08/21 08:23:34;;;;;;;3.95;1.00;;;21.20;99.90;;;;;;5057224;28;20095;-33
2023/08/21 08:26:00;;;;;;;3.95;1.40;;;21.30;99.90;;;;;;5060341;28;21218;-33
2023/08/21 08:28:26;;;;;;;3.47;1.20;;;21.40;99.90;;;;;;5058176;28;20395;-33
2023/08/21 08:30:52;;;;;;;4.65;0.93;;;21.50;99.90;;;;;;5042607;28;20060;-33
2023/08/21 08:33:17;;;;;;;4.13;1.50;;;21.60;99.90;;;;;;5058081;28;20052;-33
2023/08/21 08:35:43;;;;;;;5.70;1.45;;;21.70;99.90;;;;;;5048448;28;20083;-33
2023/08/21 08:38:09;;;;;;;3.97;1.20;;;21.70;99.90;;;;;;5047787;28;20498;-33
2023/08/21 08:40:44;;;;;;;6.47;1.50;;;21.70;99.90;;;;;;5057613;28;20055;-33
2023/08/21 08:43:14;;;;;;;4.78;0.95;;;21.80;99.90;;;;;;5059834;28;20048;-33
2023/08/21 08:45:41;;;;;;;1.90;0.85;;;21.90;99.90;;;;;;5059476;28;20056;-33
2023/08/21 08:48:07;;;;;;;6.32;0.85;;;22.00;99.90;;;;;;5058247;28;20147;-33
2023/08/21 08:50:34;;;;;;;4.55;0.70;;;22.10;99.90;;;;;;5049647;28;20138;-33
2023/08/21 08:53:01;;;;;;;4.70;0.90;;;22.10;99.90;;;;;;5056854;28;20205;-33
2023/08/21 08:55:27;;;;;;;2.40;0.60;;;22.20;99.90;;;;;;5057087;28;20076;-33
2023/08/21 08:57:53;;;;;;;5.32;0.68;;;22.30;99.90;;;;;;5058562;28;20053;-33
2023/08/21 09:00:20;;;;;;;2.92;0.60;;;22.30;99.90;;;;;;5059832;28;20551;-33
2023/08/21 09:02:46;;;;;;;2.88;0.98;;;22.40;99.90;;;;;;5055204;28;20541;-33
2023/08/21 09:05:12;;;;;;;3.00;0.80;;;22.50;99.90;;;;;;5060936;28;20135;-33
2023/08/21 09:07:38;;;;;;;3.85;0.90;;;22.50;99.90;;;;;;5055813;28;20053;-33
2023/08/21 09:10:12;;;;;;;3.00;0.70;;;22.60;99.90;;;;;;5061237;28;20061;-33
2023/08/21 09:12:38;;;;;;;2.22;0.80;;;22.60;99.90;;;;;;5058719;28;20052;-33
2023/08/21 09:15:08;;;;;;;3.70;1.10;;;22.80;99.90;;;;;;5060531;28;20052;-33
2023/08/21 09:17:33;;;;;;;4.30;1.00;;;22.90;99.90;;;;;;5058543;28;20405;-33
2023/08/21 09:20:07;;;;;;;6.15;1.30;;;22.90;99.90;;;;;;5060584;28;20359;-33
2023/08/21 09:22:33;;;;;;;5.82;1.52;;;23.00;99.90;;;;;;5059762;28;20498;-34
2023/08/21 09:25:06;;;;;;;4.80;1.02;;;23.10;99.90;;;;;;5060002;28;20049;-34
2023/08/21 09:27:37;;;;;;;4.65;1.30;;;23.20;99.90;;;;;;5061782;28;20567;-34
2023/08/21 09:30:09;;;;;;;3.50;1.23;;;23.30;99.90;;;;;;5062120;28;20057;-34
2023/08/21 09:32:56;;;;;;;4.88;0.75;;;23.40;99.90;;;;;;5061288;28;20048;-34
2023/08/21 09:35:23;;;;;;;7.35;1.23;;;23.40;99.90;;;;;;5061706;28;20655;-34
2023/08/21 09:37:52;;;;;;;2.15;0.60;;;23.50;99.90;;;;;;5059708;28;20055;-34
2023/08/21 09:40:19;;;;;;;2.08;0.52;;;23.50;99.90;;;;;;5060613;28;20395;-34
2023/08/21 09:42:45;;;;;;;3.50;0.70;;;23.50;99.90;;;;;;5057305;28;20094;-34
2023/08/21 09:45:11;;;;;;;5.45;1.20;;;23.50;99.90;;;;;;5058076;28;20040;-34
2023/08/21 09:47:39;;;;;;;5.72;0.93;;;23.60;99.90;;;;;;5060837;28;20052;-33
2023/08/21 09:50:05;;;;;;;4.50;0.90;;;23.70;99.90;;;;;;5058126;28;20056;-34
2023/08/21 09:52:31;;;;;;;3.63;0.98;;;23.70;99.90;;;;;;5062326;28;20052;-34
2023/08/21 09:54:57;;;;;;;5.75;0.95;;;23.70;99.90;;;;;;5063519;28;20052;-34
2023/08/21 09:57:24;;;;;;;4.25;0.77;;;23.60;99.90;;;;;;5061429;28;20067;-34
2023/08/21 09:59:56;;;;;;;3.50;0.60;;;23.80;99.90;;;;;;5063364;28;20048;-33
2023/08/21 10:02:24;;;;;;;4.35;1.20;;;23.80;99.90;;;;;;5061451;28;20485;-34
2023/08/21 10:04:51;;;;;;;4.65;0.85;;;23.90;99.90;;;;;;5061226;28;20489;-33
2023/08/21 10:07:22;;;;;;;3.63;1.00;;;24.00;99.90;;;;;;5061575;28;20059;-33
2023/08/21 10:09:48;;;;;;;2.80;0.80;;;24.00;99.90;;;;;;5061955;28;20752;-33
2023/08/21 10:12:17;;;;;;;4.05;0.60;;;24.10;99.90;;;;;;5059699;28;20052;-33
2023/08/21 10:14:43;;;;;;;4.30;0.95;;;24.20;99.90;;;;;;5061191;28;20414;-33
2023/08/21 10:17:09;;;;;;;3.10;0.50;;;24.30;99.90;;;;;;5058565;28;20112;-33
2023/08/21 10:19:35;;;;;;;2.72;0.60;;;24.30;99.90;;;;;;5060435;28;20044;-33
2023/08/21 10:22:03;;;;;;;2.40;0.73;;;24.40;99.90;;;;;;5062178;28;20049;-33
2023/08/21 10:24:38;;;;;;;3.25;0.75;;;24.40;99.90;;;;;;5058672;28;20486;-34
2023/08/21 10:27:03;;;;;;;3.58;0.93;;;24.50;99.90;;;;;;5060300;28;20204;-33
2023/08/21 10:29:31;;;;;;;3.97;0.70;;;24.50;99.90;;;;;;5064211;28;20127;-33
2023/08/21 10:32:04;;;;;;;5.38;0.52;;;24.50;99.90;;;;;;5040007;28;20091;-33
2023/08/21 10:34:35;;;;;;;3.08;0.50;;;24.60;99.90;;;;;;5054127;28;20405;-34
2023/08/21 10:37:06;;;;;;;2.07;0.77;;;24.70;99.90;;;;;;5063287;28;20456;-33
2023/08/21 10:39:33;;;;;;;3.55;0.70;;;24.80;99.90;;;;;;5082490;28;20067;-34
2023/08/21 10:42:24;;;;;;;4.78;0.70;;;24.90;99.90;;;;;;5054684;28;20049;-33
2023/08/21 10:44:59;;;;;;;2.53;0.65;;;25.00;99.90;;;;;;5065367;28;20041;-33
2023/08/21 10:47:27;;;;;;;4.50;0.85;;;25.10;99.90;;;;;;5067090;28;20048;-34
2023/08/21 10:50:19;;;;;;;2.05;0.85;;;25.20;99.90;;;;;;5053091;28;20070;-33
2023/08/21 10:52:45;;;;;;;2.42;0.65;;;25.20;99.90;;;;;;5063400;28;20048;-34
2023/08/21 10:55:13;;;;;;;7.00;0.80;;;25.30;99.90;;;;;;5060575;28;20041;-34
2023/08/21 10:57:41;;;;;;;5.47;1.05;;;25.40;99.90;;;;;;5059425;28;20044;-34
2023/08/21 11:00:15;;;;;;;3.80;0.88;;;25.50;99.90;;;;;;5062006;28;20426;-34
2023/08/21 11:02:46;;;;;;;2.42;0.65;;;25.40;99.90;;;;;;5060189;28;20067;-33
2023/08/21 11:05:13;;;;;;;2.92;0.88;;;25.50;99.90;;;;;;5053187;28;20045;-33
2023/08/21 11:07:44;;;;;;;5.15;1.10;;;25.50;99.90;;;;;;5063105;28;20059;-33
2023/08/21 11:10:14;;;;;;;6.80;1.20;;;25.50;99.90;;;;;;5064305;28;20088;-34
2023/08/21 11:12:57;;;;;;;5.47;0.90;;;25.50;99.90;;;;;;5064297;28;20120;-33
2023/08/21 11:15:24;;;;;;;1.80;0.55;;;25.60;99.90;;;;;;5061176;28;20048;-33
2023/08/21 11:17:58;;;;;;;3.85;0.80;;;25.70;99.90;;;;;;5064278;28;20040;-34
2023/08/21 11:20:43;;;;;;;6.20;0.80;;;25.70;99.90;;;;;;5063856;28;20413;-34
2023/08/21 11:23:09;;;;;;;2.65;0.65;;;25.70;99.90;;;;;;5054158;28;20105;-33
2023/08/21 11:25:43;;;;;;;5.30;0.80;;;25.70;99.90;;;;;;5050278;28;20052;-34
2023/08/21 11:28:09;;;;;;;5.20;1.10;;;25.70;99.90;;;;;;5057451;28;20110;-33
2023/08/21 11:30:35;;;;;;;2.15;0.63;;;25.60;99.90;;;;;;5063496;28;20060;-35
2023/08/21 11:33:09;;;;;;;3.22;0.60;;;25.70;99.90;;;;;;5058657;28;20101;-33
2023/08/21 11:35:35;;;;;;;2.72;0.60;;;25.80;99.90;;;;;;5058601;28;20049;-33
2023/08/21 11:38:00;;;;;;;4.20;0.90;;;25.90;99.90;;;;;;5057574;28;20175;-33
2023/08/21 11:40:26;;;;;;;1.88;0.70;;;26.00;99.90;;;;;;5049886;28;20084;-33
2023/08/21 11:42:52;;;;;;;3.30;0.95;;;26.10;99.90;;;;;;5056958;28;20055;-33
2023/08/21 11:45:21;;;;;;;3.40;0.80;;;26.20;99.90;;;;;;5049394;28;20105;-33
2023/08/21 11:47:47;;;;;;;2.83;0.60;;;26.40;99.90;;;;;;5059110;28;20071;-33
2023/08/21 11:50:15;;;;;;;3.72;0.50;;;26.40;99.90;;;;;;5052973;28;20045;-33
2023/08/21 11:52:42;;;;;;;3.53;0.80;;;26.20;99.90;;;;;;5060827;28;20101;-33
2023/08/21 11:55:11;;;;;;;2.08;0.77;;;25.90;99.90;;;;;;5056888;28;20052;-33
2023/08/21 11:57:49;;;;;;;4.13;0.68;;;25.70;99.90;;;;;;5061951;28;20082;-33
2023/08/21 12:00:18;;;;;;;2.40;0.80;;;25.70;99.90;;;;;;5057038;28;20044;-33
2023/08/21 12:02:54;;;;;;;2.58;0.70;;;25.70;99.90;;;;;;5056033;28;20113;-33
2023/08/21 12:05:20;;;;;;;5.57;0.68;;;25.70;99.90;;;;;;5060861;28;20048;-33
2023/08/21 12:07:46;;;;;;;3.63;0.70;;;25.70;99.90;;;;;;5058093;28;20048;-33
2023/08/21 12:10:11;;;;;;;2.67;0.75;;;25.70;99.90;;;;;;5052153;28;20498;-33
2023/08/21 12:12:37;;;;;;;3.22;0.80;;;25.90;99.90;;;;;;5060297;28;20472;-33
2023/08/21 12:15:03;;;;;;;3.97;0.88;;;26.00;99.90;;;;;;5060841;28;20052;-34
2023/08/21 12:17:29;;;;;;;4.22;0.80;;;26.20;99.90;;;;;;5054343;28;20073;-35
2023/08/21 12:19:54;;;;;;;4.28;0.77;;;26.30;99.90;;;;;;5049453;28;20079;-33
2023/08/21 12:22:20;;;;;;;4.53;1.05;;;26.20;99.90;;;;;;5056651;28;20048;-33
2023/08/21 12:24:45;;;;;;;4.68;1.23;;;26.10;99.90;;;;;;5055937;28;20052;-33
2023/08/21 12:27:11;;;;;;;5.55;1.00;;;26.10;99.90;;;;;;5055359;28;20049;-33
2023/08/21 12:29:37;;;;;;;4.25;1.08;;;26.10;99.90;;;;;;5055499;28;20052;-33
2023/08/21 12:32:03;;;;;;;2.08;0.70;;;26.30;99.90;;;;;;5043733;28;20485;-33
2023/08/21 12:34:28;;;;;;;2.60;0.77;;;26.50;99.90;;;;;;5062451;28;20048;-33
2023/08/21 12:36:54;;;;;;;4.97;0.85;;;26.70;99.90;;;;;;5057464;28;20094;-33
2023/08/21 12:39:21;;;;;;;1.88;0.50;;;26.90;99.90;;;;;;5078697;28;20044;-33
2023/08/21 12:41:48;;;;;;;1.85;0.60;;;27.10;99.90;;;;;;5066384;28;20041;-33
2023/08/21 12:44:14;;;;;;;3.20;0.70;;;27.10;99.90;;;;;;5054451;28;20094;-33
2023/08/21 12:46:40;;;;;;;3.63;0.75;;;27.10;99.90;;;;;;5036521;28;20190;-33